EDT,Max TemperatureF,Mean TemperatureF,Min TemperatureF,Max Dew PointF,MeanDew PointF,Min DewpointF,Max Humidity, Mean Humidity, Min Humidity, Max Sea Level PressureIn, Mean Sea Level PressureIn, Min Sea Level PressureIn, Max VisibilityMiles, Mean VisibilityMiles, Min VisibilityMiles, Max Wind SpeedMPH, Mean Wind SpeedMPH, Max Gust SpeedMPH,PrecipitationIn, CloudCover, Events, WindDirDegrees
2013-9-1,73,64,55,65,61,55,100,87,73,29.88,29.82,29.70,10,6,0,13,5,17,0.00,6,Fog,162
2013-9-2,64,59,54,64,54,49,93,83,72,29.88,29.81,29.74,10,9,1,18,10,28,0.02,8,Rain,301
2013-9-3,75,64,52,52,48,41,86,59,31,29.97,29.93,29.88,10,10,10,16,7,23,0.00,2,,290
2013-9-4,70,59,48,58,50,41,87,68,48,30.14,30.02,29.91,10,10,10,17,8,21,0.00,3,,317
2013-9-5,65,54,43,45,40,32,92,61,30,30.32,30.26,30.14,10,10,10,13,4,18,0.00,0,,310
2013-9-6,77,58,38,54,46,37,100,68,36,30.26,30.15,29.99,10,10,10,14,5,18,0.02,1,,213
2013-9-7,76,70,63,69,64,57,100,87,73,29.99,29.91,29.86,10,8,1,17,6,23,0.30,8,Rain-Thunderstorm,299
2013-9-8,66,55,44,57,50,44,96,74,52,30.19,30.12,30.02,10,10,10,14,6,17,0.00,1,,67
2013-9-9,77,60,43,64,54,42,100,77,54,30.11,29.97,29.78,10,10,10,20,5,23,T,3,Rain,176
2013-9-10,95,79,63,70,67,63,100,68,36,29.97,29.83,29.75,10,8,2,21,7,25,0.16,2,Rain-Thunderstorm,258
2013-9-11,80,71,61,67,65,60,100,79,58,29.98,29.94,29.91,10,9,2,13,4,16,0.24,4,Rain-Thunderstorm,236
2013-9-12,69,60,51,63,54,44,93,74,55,30.02,29.92,29.85,10,10,5,22,10,30,0.04,6,Rain,312
2013-9-13,56,47,38,47,40,34,92,68,43,30.17,30.13,30.03,10,10,2,20,9,24,T,5,Rain,337
2013-9-14,70,52,34,51,41,33,100,70,40,30.18,30.12,30.03,10,7,0,13,3,17,0.00,2,Fog,255
2013-9-15,60,55,50,56,52,43,93,80,66,30.17,30.06,30.00,10,9,3,17,5,22,0.12,7,Rain,263
2013-9-16,56,45,33,50,40,33,93,70,47,30.44,30.35,30.16,10,10,4,18,6,24,0.02,5,Rain,19
2013-9-17,62,46,30,50,37,30,100,77,53,30.46,30.39,30.23,10,5,0,13,4,17,0.00,2,Fog,145
2013-9-18,76,57,37,58,46,38,100,69,38,30.21,30.12,30.00,10,8,0,15,5,21,0.00,2,Fog,170
2013-9-19,82,72,61,65,61,54,93,76,58,29.99,29.92,29.83,10,10,9,17,6,21,0.03,3,Rain,183
2013-9-20,76,69,62,68,65,61,100,85,69,29.83,29.72,29.66,10,8,2,20,9,25,0.23,6,Rain-Thunderstorm,207
2013-9-21,62,54,45,58,48,39,90,72,53,29.89,29.75,29.68,10,10,7,20,9,26,0.01,7,Rain,320
2013-9-22,54,44,34,43,38,33,100,73,46,30.14,30.03,29.89,10,10,9,14,6,17,T,6,Rain,324
2013-9-23,61,47,33,45,40,32,96,74,51,30.24,30.19,30.14,10,10,10,12,3,15,0.00,5,,72
2013-9-24,63,48,32,48,39,30,100,75,49,30.21,30.15,30.05,10,7,0,10,2,16,0.00,3,Fog,139
2013-9-25,66,50,34,51,41,34,100,74,48,30.09,30.06,30.04,10,6,0,9,2,12,0.00,3,Fog,76
2013-9-26,72,53,34,49,40,34,100,70,40,30.18,30.13,30.05,10,4,0,12,2,13,0.00,4,Fog,118
2013-9-27,74,55,36,55,45,34,100,67,33,30.26,30.22,30.17,10,9,0,13,4,16,0.00,0,Fog,135
2013-9-28,76,60,43,58,52,44,100,72,43,30.22,30.15,29.95,10,6,0,24,8,29,0.00,1,Fog,153
2013-9-29,67,54,41,58,51,42,100,74,48,30.03,29.96,29.86,10,8,2,17,6,24,0.40,4,Rain,274
2013-9-30,68,52,36,53,43,36,100,70,39,30.04,29.99,29.91,10,7,0,12,3,15,0.00,2,Fog,183